Time;durP1;ratioP1;P1;durP2;ratioP2;P2;SDS_P1;SDS_P2;PMS_P1;PMS_P2;Temp;Humidity;BMP_temperature;BMP_pressure;BME280_temperature;BME280_humidity;BME280_pressure;Samples;Min_cycle;Max_cycle;Signal;HPM_P1;HPM_P2
2022/08/12 00:44:09;;;;;;;;;;;;;;;21.51;41.50;100579.81;5405928;32;35664;-75
2022/08/12 00:47:13;;;;;;;;;;;;;;;21.56;41.56;100563.38;5387009;32;33477;-70
2022/08/12 00:50:26;;;;;;;;;;;;;;;20.63;43.87;100573.53;5404069;32;34963;-72
2022/08/12 00:53:29;;;;;;;;;;;;;;;21.10;43.01;100575.94;5389382;32;44927;-73
2022/08/12 00:56:31;;;;;;;;;;;;;;;20.85;43.25;100562.00;5400994;32;34811;-71
2022/08/12 00:59:33;;;;;;;;;;;;;;;21.59;42.04;100577.38;5372608;32;35251;-74
2022/08/12 01:02:44;;;;;;;;;;;;;;;21.43;42.45;100587.59;5377758;32;34335;-73
2022/08/12 01:12:28;;;;;;;;;;;;;;;21.17;43.37;100576.31;5406065;32;44858;-72
2022/08/12 01:15:30;;;;;;;;;;;;;;;20.68;44.51;100588.22;5390097;32;33434;-74
2022/08/12 01:18:37;;;;;;;;;;;;;;;21.17;43.36;100572.78;5394763;32;35381;-70
2022/08/12 01:21:57;;;;;;;;;;;;;;;21.16;43.43;100584.47;5400739;32;34997;-77
2022/08/12 01:25:06;;;;;;;;;;;;;;;21.50;42.82;100579.94;5388094;32;45038;-76
2022/08/12 01:28:11;;;;;;;;;;;;;;;21.28;43.21;100583.47;5416023;32;34870;-77
2022/08/12 01:31:14;;;;;;;;;;;;;;;20.87;44.05;100579.63;5372651;32;34779;-74
2022/08/12 01:34:18;;;;;;;;;;;;;;;20.58;44.68;100573.88;5394173;32;34762;-71
2022/08/12 01:37:55;;;;;;;;;;;;;;;20.96;43.77;100570.03;5413771;32;46771;-74
2022/08/12 01:40:58;;;;;;;;;;;;;;;20.94;43.92;100570.16;5401879;32;33556;-77
2022/08/12 01:44:01;;;;;;;;;;;;;;;20.82;44.18;100563.09;5389920;32;46082;-76
2022/08/12 01:47:12;;;;;;;;;;;;;;;20.71;44.38;100563.09;5401276;32;34958;-72
2022/08/12 01:50:25;;;;;;;;;;;;;;;20.74;44.18;100566.37;5408712;32;36361;-71
2022/08/12 01:53:32;;;;;;;;;;;;;;;21.28;43.03;100559.41;5415247;32;34897;-73
2022/08/12 01:56:55;;;;;;;;;;;;;;;20.43;44.74;100561.69;5388509;32;34632;-71
2022/08/12 02:00:03;;;;;;;;;;;;;;;20.55;44.82;100563.47;5402163;32;32495;-76
2022/08/12 02:03:21;;;;;;;;;;;;;;;20.97;43.64;100553.84;5388205;32;44504;-74
2022/08/12 02:13:54;;;;;;;;;;;;;;;20.80;44.32;100551.66;5404190;32;34625;-76
2022/08/12 02:16:57;;;;;;;;;;;;;;;20.74;44.27;100547.69;5379657;32;35039;-76
2022/08/12 02:20:03;;;;;;;;;;;;;;;20.68;44.46;100539.31;5401226;32;44872;-76
2022/08/12 02:23:06;;;;;;;;;;;;;;;20.76;44.24;100536.88;5387461;32;35421;-75
2022/08/12 02:26:08;;;;;;;;;;;;;;;20.65;44.50;100540.38;5399589;32;36831;-72
2022/08/12 02:29:10;;;;;;;;;;;;;;;20.27;45.44;100543.34;5399831;32;35357;-72
2022/08/12 02:32:13;;;;;;;;;;;;;;;20.18;45.61;100544.91;5415197;32;34806;-73
2022/08/12 02:35:18;;;;;;;;;;;;;;;20.14;46.09;100531.91;5400115;32;34991;-76
2022/08/12 02:38:20;;;;;;;;;;;;;;;20.41;45.05;100535.09;5386369;32;34627;-72
2022/08/12 02:41:22;;;;;;;;;;;;;;;20.23;45.92;100532.06;5413583;32;34238;-72
2022/08/12 02:44:25;;;;;;;;;;;;;;;20.30;45.31;100532.44;5403730;32;34773;-75
2022/08/12 02:47:27;;;;;;;;;;;;;;;19.89;46.41;100531.09;5403589;32;34258;-72
2022/08/12 02:50:51;;;;;;;;;;;;;;;19.42;47.69;100534.63;5387622;32;34700;-75
2022/08/12 02:53:55;;;;;;;;;;;;;;;19.95;46.38;100527.97;5395666;32;35108;-76
2022/08/12 02:57:06;;;;;;;;;;;;;;;19.84;46.71;100525.28;5384633;32;45044;-72
2022/08/12 03:00:08;;;;;;;;;;;;;;;19.84;46.84;100521.78;5371526;32;35525;-72
2022/08/12 03:03:11;;;;;;;;;;;;;;;19.30;48.02;100509.72;5408721;32;34727;-71
2022/08/12 03:06:15;;;;;;;;;;;;;;;19.77;47.19;100523.16;5388184;32;34721;-76
2022/08/12 03:09:17;;;;;;;;;;;;;;;19.98;46.40;100524.25;5391776;32;35057;-72
2022/08/12 03:12:20;;;;;;;;;;;;;;;19.67;47.19;100515.03;5390625;32;35372;-76
2022/08/12 03:15:22;;;;;;;;;;;;;;;19.80;46.97;100523.81;5382121;32;37099;-74
2022/08/12 03:18:30;;;;;;;;;;;;;;;19.68;47.00;100527.38;5404034;32;36420;-71
2022/08/12 03:21:38;;;;;;;;;;;;;;;20.05;46.28;100524.63;5402722;32;45251;-73
2022/08/12 03:25:02;;;;;;;;;;;;;;;19.58;47.70;100519.25;5405902;32;47140;-75
2022/08/12 03:28:04;;;;;;;;;;;;;;;19.83;46.84;100517.38;5387677;32;35184;-71
2022/08/12 03:31:07;;;;;;;;;;;;;;;19.54;47.50;100527.53;5389785;32;35460;-75
2022/08/12 03:34:12;;;;;;;;;;;;;;;19.35;47.97;100525.37;5402892;32;34846;-71
2022/08/12 03:37:14;;;;;;;;;;;;;;;20.05;46.33;100524.63;5388281;32;35548;-75
2022/08/12 04:00:27;;;;;;;;;;;;;;;19.90;46.76;100534.63;5411772;32;34951;-72
2022/08/12 04:06:50;;;;;;;;;;;;;;;19.22;48.81;100544.06;5415961;32;35285;-74
2022/08/12 04:09:52;;;;;;;;;;;;;;;19.18;48.43;100542.59;5377066;32;34909;-75
2022/08/12 04:16:15;;;;;;;;;;;;;;;19.72;47.25;100544.88;5379961;32;34957;-75
2022/08/12 04:19:18;;;;;;;;;;;;;;;19.42;47.93;100535.47;5397338;32;34933;-75
2022/08/12 04:22:21;;;;;;;;;;;;;;;20.02;46.61;100544.34;5425160;32;33093;-72
2022/08/12 04:25:23;;;;;;;;;;;;;;;19.15;48.73;100548.16;5388393;32;34941;-74
2022/08/12 04:28:26;;;;;;;;;;;;;;;19.34;48.26;100545.00;5404070;32;34785;-75
2022/08/12 04:31:29;;;;;;;;;;;;;;;19.11;48.68;100559.97;5385697;32;46032;-71
2022/08/12 04:34:31;;;;;;;;;;;;;;;19.66;47.62;100543.50;5409681;32;36526;-70
2022/08/12 04:37:33;;;;;;;;;;;;;;;19.47;48.20;100561.78;5408887;32;35578;-75
2022/08/12 04:40:55;;;;;;;;;;;;;;;19.50;48.40;100553.56;5402462;32;34500;-72
2022/08/12 04:43:57;;;;;;;;;;;;;;;19.44;48.47;100562.00;5417674;32;34599;-74
2022/08/12 04:47:03;;;;;;;;;;;;;;;19.92;47.45;100565.56;5387166;32;44475;-70
2022/08/12 04:50:06;;;;;;;;;;;;;;;19.95;47.62;100570.66;5417248;32;34297;-74
2022/08/12 04:53:28;;;;;;;;;;;;;;;20.12;46.64;100563.19;5411882;32;37111;-71
2022/08/12 04:56:30;;;;;;;;;;;;;;;20.45;46.34;100575.81;5400133;32;35107;-75
2022/08/12 04:59:36;;;;;;;;;;;;;;;21.19;44.46;100576.19;5401923;32;34784;-75
2022/08/12 05:02:49;;;;;;;;;;;;;;;21.16;44.46;100579.97;5389043;32;34704;-74
2022/08/12 05:05:51;;;;;;;;;;;;;;;21.74;43.06;100577.06;5417378;32;34967;-73
2022/08/12 05:08:54;;;;;;;;;;;;;;;23.18;39.71;100577.16;5380628;32;34522;-73
2022/08/12 05:11:56;;;;;;;;;;;;;;;23.56;38.71;100572.87;5388377;32;34822;-70
2022/08/12 05:14:59;;;;;;;;;;;;;;;22.88;39.99;100585.25;5402260;32;43500;-71
2022/08/12 05:18:01;;;;;;;;;;;;;;;23.74;37.87;100560.50;5383278;32;34830;-71
2022/08/12 05:21:21;;;;;;;;;;;;;;;22.38;40.07;100569.84;5416730;32;34404;-75
2022/08/12 05:24:23;;;;;;;;;;;;;;;23.86;37.93;100571.94;5387301;32;33005;-72
2022/08/12 05:27:24;;;;;;;;;;;;;;;23.40;38.49;100586.00;5411190;32;34369;-73
2022/08/12 05:30:27;;;;;;;;;;;;;;;23.59;38.24;100574.44;5410268;32;36197;-71
2022/08/12 05:33:36;;;;;;;;;;;;;;;24.43;36.52;100572.06;5389446;32;44772;-75
2022/08/12 05:36:39;;;;;;;;;;;;;;;24.32;36.42;100563.16;5415647;32;34842;-75
2022/08/12 05:39:41;;;;;;;;;;;;;;;24.15;36.58;100568.41;5387080;32;34387;-76
2022/08/12 05:42:43;;;;;;;;;;;;;;;24.64;35.97;100574.56;5400939;32;34677;-74
2022/08/12 05:45:45;;;;;;;;;;;;;;;25.39;34.63;100577.09;5395914;32;34872;-74
2022/08/12 05:48:53;;;;;;;;;;;;;;;25.41;34.40;100576.09;5401039;32;34787;-74
2022/08/12 05:51:56;;;;;;;;;;;;;;;25.48;34.61;100579.84;5382501;32;35567;-75
2022/08/12 05:54:58;;;;;;;;;;;;;;;26.12;32.97;100568.06;5393378;32;44771;-74
2022/08/12 05:58:01;;;;;;;;;;;;;;;26.16;32.87;100569.44;5402775;32;36569;-75
2022/08/12 06:01:03;;;;;;;;;;;;;;;25.23;34.15;100567.97;5389487;32;34445;-73
2022/08/12 06:04:25;;;;;;;;;;;;;;;24.65;35.91;100574.41;5403811;32;34525;-82
2022/08/12 06:07:28;;;;;;;;;;;;;;;26.24;32.90;100561.41;5395617;32;37716;-75
2022/08/12 06:10:51;;;;;;;;;;;;;;;26.19;32.83;100563.72;5387026;32;35389;-74
2022/08/12 06:13:54;;;;;;;;;;;;;;;25.55;34.22;100562.94;5391109;32;33694;-74
2022/08/12 06:16:58;;;;;;;;;;;;;;;26.35;33.06;100569.25;5360125;32;35230;-74
2022/08/12 06:20:00;;;;;;;;;;;;;;;25.49;33.94;100565.41;5405764;32;44645;-76
2022/08/12 06:23:27;;;;;;;;;;;;;;;26.09;33.28;100565.69;5405068;32;35026;-76
2022/08/12 06:26:29;;;;;;;;;;;;;;;26.25;33.17;100562.25;5377922;32;46657;-77
2022/08/12 06:29:33;;;;;;;;;;;;;;;27.26;31.43;100558.00;5390662;32;35665;-76
2022/08/12 06:32:55;;;;;;;;;;;;;;;26.27;32.84;100565.63;5385257;32;35774;-77
2022/08/12 06:36:17;;;;;;;;;;;;;;;27.71;30.64;100562.19;5402443;32;35926;-76
2022/08/12 06:39:22;;;;;;;;;;;;;;;28.39;29.43;100561.00;5399170;32;34322;-73
2022/08/12 06:45:48;;;;;;;;;;;;;;;26.78;31.97;100559.44;5409818;32;34810;-74
2022/08/12 06:48:55;;;;;;;;;;;;;;;26.49;32.29;100561.63;5395630;32;34642;-78
2022/08/12 06:51:57;;;;;;;;;;;;;;;27.31;31.43;100569.16;5409078;32;34848;-74
2022/08/12 06:54:59;;;;;;;;;;;;;;;26.81;31.84;100566.37;5384149;32;44523;-77
2022/08/12 06:58:02;;;;;;;;;;;;;;;27.21;31.66;100563.88;5399586;32;35695;-74
2022/08/12 07:01:10;;;;;;;;;;;;;;;27.37;30.75;100564.91;5409097;32;34844;-74
2022/08/12 07:04:14;;;;;;;;;;;;;;;26.88;32.09;100565.56;5389253;32;34112;-75
2022/08/12 07:07:37;;;;;;;;;;;;;;;27.06;31.44;100564.66;5416054;32;44933;-76
2022/08/12 07:10:41;;;;;;;;;;;;;;;27.53;30.78;100559.56;5380958;32;34950;-75
2022/08/12 07:13:44;;;;;;;;;;;;;;;28.63;29.14;100552.03;5402637;32;35394;-78
2022/08/12 07:17:06;;;;;;;;;;;;;;;28.42;29.64;100558.81;5379490;32;44881;-75
2022/08/12 07:20:10;;;;;;;;;;;;;;;27.93;29.65;100550.72;5399039;32;35323;-66
2022/08/12 07:23:33;;;;;;;;;;;;;;;29.35;27.72;100558.19;5415228;32;45312;-69
2022/08/12 07:26:39;;;;;;;;;;;;;;;28.46;28.91;100560.16;5401710;32;35484;-75
2022/08/12 07:29:46;;;;;;;;;;;;;;;29.95;26.84;100560.19;5399169;32;34442;-68
2022/08/12 07:33:07;;;;;;;;;;;;;;;30.78;25.83;100566.53;5411814;32;44434;-74
2022/08/12 07:36:10;;;;;;;;;;;;;;;31.20;25.15;100564.00;5386385;32;35278;-65
2022/08/12 07:39:12;;;;;;;;;;;;;;;30.52;26.30;100566.97;5411462;32;35445;-73
2022/08/12 07:42:15;;;;;;;;;;;;;;;31.66;24.80;100563.72;5402215;32;35541;-66
2022/08/12 07:45:19;;;;;;;;;;;;;;;30.59;26.32;100571.50;5404692;32;35305;-65
2022/08/12 07:48:21;;;;;;;;;;;;;;;30.80;26.02;100567.22;5410697;32;35629;-82
2022/08/12 07:51:24;;;;;;;;;;;;;;;30.53;25.95;100557.78;5402025;32;35005;-64
2022/08/12 07:54:26;;;;;;;;;;;;;;;32.11;24.06;100547.22;5412821;32;32778;-66
2022/08/12 07:57:31;;;;;;;;;;;;;;;30.70;26.33;100560.19;5394487;32;43553;-76
2022/08/12 08:00:34;;;;;;;;;;;;;;;30.18;26.77;100560.19;5415948;32;34963;-70
2022/08/12 08:04:54;;;;;;;;;;;;;;;32.63;23.49;100549.50;5402177;32;35481;-75
2022/08/12 08:07:01;;;;;;;;;;;;;;;31.87;24.73;100543.88;5399465;32;44069;-77
2022/08/12 08:10:06;;;;;;;;;;;;;;;31.78;24.99;100547.75;5399461;32;34250;-65
2022/08/12 08:13:10;;;;;;;;;;;;;;;32.99;23.39;100546.63;5402135;32;34209;-76
2022/08/12 08:16:15;;;;;;;;;;;;;;;32.15;24.28;100541.22;5381968;32;36803;-73
2022/08/12 08:19:22;;;;;;;;;;;;;;;32.36;24.13;100542.22;5384631;32;32838;-75
2022/08/12 08:22:24;;;;;;;;;;;;;;;33.38;22.21;100542.34;5388867;32;34235;-65
2022/08/12 08:25:45;;;;;;;;;;;;;;;34.61;21.08;100541.00;5399578;32;34755;-72
2022/08/12 08:28:47;;;;;;;;;;;;;;;31.16;25.41;100554.53;5398298;32;34342;-63
2022/08/12 08:31:53;;;;;;;;;;;;;;;33.05;22.89;100536.81;5414576;32;34259;-64
2022/08/12 08:34:55;;;;;;;;;;;;;;;29.64;27.32;100539.41;5398174;32;37219;-62
2022/08/12 08:38:07;;;;;;;;;;;;;;;32.19;24.18;100523.44;5410324;32;35721;-63
2022/08/12 08:44:56;;;;;;;;;;;;;;;33.34;22.71;100530.19;5392085;32;35668;-76
2022/08/12 08:47:59;;;;;;;;;;;;;;;31.55;24.68;100532.44;5413858;32;44305;-77
2022/08/12 08:51:04;;;;;;;;;;;;;;;33.14;23.07;100527.41;5397575;32;34200;-76
2022/08/12 08:54:07;;;;;;;;;;;;;;;34.32;21.12;100523.19;5391659;32;35538;-65
2022/08/12 08:57:09;;;;;;;;;;;;;;;35.23;20.28;100514.97;5402178;32;35509;-80
2022/08/12 09:00:15;;;;;;;;;;;;;;;36.32;19.15;100516.50;5396803;32;35612;-65
2022/08/12 09:03:17;;;;;;;;;;;;;;;33.09;22.47;100521.72;5389356;32;34334;-65
2022/08/12 09:06:42;;;;;;;;;;;;;;;33.53;22.30;100518.53;5399424;32;35135;-65
2022/08/12 09:09:56;;;;;;;;;;;;;;;34.34;21.48;100512.09;5397251;32;34254;-70
2022/08/12 09:16:45;;;;;;;;;;;;;;;36.40;18.92;100489.97;5369982;32;34745;-65
2022/08/12 09:19:50;;;;;;;;;;;;;;;33.55;21.67;100489.19;5403524;32;35389;-75
2022/08/12 09:23:04;;;;;;;;;;;;;;;33.92;21.60;100486.94;5404173;32;44812;-77
2022/08/12 09:26:27;;;;;;;;;;;;;;;33.92;21.82;100490.50;5386912;32;35389;-77
2022/08/12 09:29:31;;;;;;;;;;;;;;;35.51;19.97;100497.41;5392917;32;44579;-76
2022/08/12 09:32:53;;;;;;;;;;;;;;;36.19;19.30;100486.53;5388622;32;35403;-73
2022/08/12 09:36:16;;;;;;;;;;;;;;;35.55;19.51;100484.94;5400015;32;34617;-67
2022/08/12 09:39:39;;;;;;;;;;;;;;;34.39;20.77;100488.56;5402310;32;34616;-75
2022/08/12 09:46:25;;;;;;;;;;;;;;;36.68;18.15;100475.72;5411269;32;33992;-75
2022/08/12 09:49:27;;;;;;;;;;;;;;;36.51;18.33;100467.28;5381129;32;44169;-68
2022/08/12 09:52:30;;;;;;;;;;;;;;;34.96;20.12;100470.56;5384395;32;34222;-64
2022/08/12 09:55:33;;;;;;;;;;;;;;;35.90;18.91;100466.16;5402543;32;36433;-66
2022/08/12 09:58:55;;;;;;;;;;;;;;;33.86;21.18;100474.09;5396328;32;33649;-74
2022/08/12 10:02:02;;;;;;;;;;;;;;;35.39;19.51;100456.22;5391423;32;47062;-68
2022/08/12 10:05:25;;;;;;;;;;;;;;;34.86;20.15;100466.59;5392643;32;34591;-68
2022/08/12 10:08:47;;;;;;;;;;;;;;;35.79;18.89;100459.53;5400451;32;34436;-66
2022/08/12 10:15:16;;;;;;;;;;;;;;;34.47;20.67;100461.06;5393643;32;35952;-78
2022/08/12 10:18:40;;;;;;;;;;;;;;;35.41;19.45;100458.75;5381541;32;36112;-67
2022/08/12 10:21:53;;;;;;;;;;;;;;;36.08;18.72;100451.72;5390486;32;34245;-77
2022/08/12 10:31:39;;;;;;;;;;;;;;;36.98;17.86;100441.03;5384258;32;34824;-73
2022/08/12 10:35:02;;;;;;;;;;;;;;;33.10;21.58;100438.97;5406036;32;45732;-73
2022/08/12 10:38:04;;;;;;;;;;;;;;;33.73;20.89;100434.06;5409677;32;34376;-72
2022/08/12 10:45:02;;;;;;;;;;;;;;;36.60;17.54;100436.66;5409562;32;36016;-76
2022/08/12 10:48:05;;;;;;;;;;;;;;;34.90;19.61;100449.56;5394586;32;34908;-74
2022/08/12 10:51:30;;;;;;;;;;;;;;;35.10;18.93;100432.25;5391031;32;34468;-67
2022/08/12 10:54:54;;;;;;;;;;;;;;;36.64;17.23;100433.44;5397659;32;35218;-69
2022/08/12 10:57:56;;;;;;;;;;;;;;;34.21;20.24;100442.84;5393505;32;34218;-77
2022/08/12 11:01:19;;;;;;;;;;;;;;;35.38;18.84;100435.44;5399473;32;35518;-67
2022/08/12 11:04:41;;;;;;;;;;;;;;;34.66;20.05;100444.84;5398136;32;34753;-68
2022/08/12 11:07:51;;;;;;;;;;;;;;;33.95;20.70;100445.62;5387665;32;34111;-76
2022/08/12 11:11:16;;;;;;;;;;;;;;;34.95;19.73;100438.84;5411112;32;34712;-72
2022/08/12 11:14:40;;;;;;;;;;;;;;;33.05;21.94;100452.41;5398741;32;36215;-66
2022/08/12 11:17:51;;;;;;;;;;;;;;;33.88;20.65;100436.59;5381814;32;34092;-67
2022/08/12 11:20:57;;;;;;;;;;;;;;;33.55;20.97;100445.56;5414194;32;34390;-69
2022/08/12 11:23:59;;;;;;;;;;;;;;;32.66;22.12;100440.28;5373369;32;44349;-72
2022/08/12 11:27:05;;;;;;;;;;;;;;;32.98;21.83;100446.09;5409810;32;36599;-68
2022/08/12 11:30:12;;;;;;;;;;;;;;;32.52;22.31;100433.09;5392117;32;35151;-72
2022/08/12 11:33:32;;;;;;;;;;;;;;;33.04;21.68;100437.94;5375396;32;44881;-72
2022/08/12 11:36:56;;;;;;;;;;;;;;;32.50;22.81;100429.75;5406132;32;34479;-72
2022/08/12 11:39:59;;;;;;;;;;;;;;;31.20;24.12;100428.25;5392329;32;43862;-65
2022/08/12 11:43:01;;;;;;;;;;;;;;;30.74;25.00;100436.72;5409877;32;34846;-72
2022/08/12 11:46:20;;;;;;;;;;;;;;;32.58;22.50;100419.50;5376913;32;37793;-67
2022/08/12 11:49:23;;;;;;;;;;;;;;;32.25;23.17;100426.63;5391794;32;34320;-64
2022/08/12 11:52:32;;;;;;;;;;;;;;;34.43;20.57;100412.59;5404640;32;44560;-65
2022/08/12 11:55:54;;;;;;;;;;;;;;;34.28;20.67;100425.62;5373997;32;35465;-72
2022/08/12 11:58:56;;;;;;;;;;;;;;;34.15;21.17;100421.06;5410553;32;35343;-72
2022/08/12 12:02:18;;;;;;;;;;;;;;;34.81;20.11;100420.84;5378626;32;34830;-66
2022/08/12 12:05:21;;;;;;;;;;;;;;;33.71;21.47;100414.38;5397619;32;34240;-74
2022/08/12 12:08:40;;;;;;;;;;;;;;;36.00;19.11;100410.97;5415039;32;33689;-68
2022/08/12 12:11:50;;;;;;;;;;;;;;;35.47;19.54;100401.34;5376522;32;34244;-65
2022/08/12 12:14:55;;;;;;;;;;;;;;;36.22;18.58;100405.91;5410442;32;34278;-73
2022/08/12 12:18:01;;;;;;;;;;;;;;;37.83;16.71;100396.09;5376884;32;45213;-66
2022/08/12 12:21:03;;;;;;;;;;;;;;;39.01;15.54;100394.75;5398275;32;34214;-65
2022/08/12 12:24:09;;;;;;;;;;;;;;;35.30;19.20;100394.72;5400016;32;37738;-66
2022/08/12 12:27:10;;;;;;;;;;;;;;;35.25;19.66;100391.81;5390165;32;34822;-72
2022/08/12 12:30:19;;;;;;;;;;;;;;;36.17;18.72;100386.59;5408561;32;35148;-75
2022/08/12 12:33:30;;;;;;;;;;;;;;;35.49;19.07;100373.81;5386623;32;45107;-70
2022/08/12 12:36:52;;;;;;;;;;;;;;;35.81;18.93;100377.28;5397740;32;34796;-74
2022/08/12 12:39:58;;;;;;;;;;;;;;;37.33;17.30;100358.94;5392079;32;34869;-75
2022/08/12 12:43:01;;;;;;;;;;;;;;;35.94;18.87;100354.44;5369513;32;44354;-72
2022/08/12 12:46:06;;;;;;;;;;;;;;;37.63;17.19;100349.81;5417578;32;34767;-65
2022/08/12 12:49:09;;;;;;;;;;;;;;;36.53;18.23;100352.94;5384553;32;35175;-72
2022/08/12 12:52:16;;;;;;;;;;;;;;;34.35;20.59;100356.34;5417979;32;34836;-66
2022/08/12 12:55:22;;;;;;;;;;;;;;;32.73;22.49;100347.81;5400733;32;34911;-73
2022/08/12 12:58:23;;;;;;;;;;;;;;;32.67;22.37;100332.28;5400518;32;33375;-65
2022/08/12 13:01:25;;;;;;;;;;;;;;;31.83;23.77;100344.22;5416554;32;34340;-72
2022/08/12 13:04:36;;;;;;;;;;;;;;;31.63;24.04;100341.34;5399580;32;44706;-65
2022/08/12 13:07:41;;;;;;;;;;;;;;;30.74;25.21;100344.47;5402072;32;35193;-65
2022/08/12 13:10:59;;;;;;;;;;;;;;;32.65;22.79;100327.03;5389580;32;34375;-73
2022/08/12 13:14:01;;;;;;;;;;;;;;;31.59;24.18;100336.50;5407026;32;44768;-65
2022/08/12 13:17:17;;;;;;;;;;;;;;;30.68;25.54;100331.69;5393484;32;35343;-65
2022/08/12 13:20:21;;;;;;;;;;;;;;;30.62;25.63;100335.13;5397913;32;34105;-67
2022/08/12 13:23:46;;;;;;;;;;;;;;;31.73;23.79;100319.25;5417434;32;36016;-74
2022/08/12 13:26:48;;;;;;;;;;;;;;;30.47;24.97;100326.19;5398191;32;35187;-73
2022/08/12 13:29:51;;;;;;;;;;;;;;;30.08;25.55;100332.78;5391539;32;34119;-72
2022/08/12 13:32:57;;;;;;;;;;;;;;;31.02;24.37;100319.28;5414951;32;34907;-65
2022/08/12 13:36:00;;;;;;;;;;;;;;;31.85;23.00;100322.28;5399038;32;45378;-65
2022/08/12 13:39:07;;;;;;;;;;;;;;;30.60;24.30;100322.81;5416824;32;34730;-65
2022/08/12 13:42:09;;;;;;;;;;;;;;;30.84;24.16;100319.72;5406075;32;35081;-72
2022/08/12 13:45:15;;;;;;;;;;;;;;;31.93;22.68;100312.06;5416328;32;34872;-65
2022/08/12 13:48:17;;;;;;;;;;;;;;;30.99;23.64;100306.97;5385363;32;34829;-65
2022/08/12 13:51:21;;;;;;;;;;;;;;;31.10;22.83;100315.59;5385142;32;35343;-71
2022/08/12 13:54:25;;;;;;;;;;;;;;;31.53;22.17;100321.81;5416408;32;34656;-66
2022/08/12 13:57:42;;;;;;;;;;;;;;;31.82;22.03;100315.37;5400804;32;37422;-65
2022/08/12 14:00:49;;;;;;;;;;;;;;;30.92;23.54;100310.66;5417245;32;34961;-70
2022/08/12 14:03:52;;;;;;;;;;;;;;;31.98;22.41;100298.72;5397844;32;34715;-73
2022/08/12 14:06:54;;;;;;;;;;;;;;;31.54;22.87;100291.75;5405615;32;34573;-65
2022/08/12 14:13:30;;;;;;;;;;;;;;;32.73;20.65;100296.94;5388855;32;35424;-75
2022/08/12 14:16:52;;;;;;;;;;;;;;;31.74;21.89;100291.03;5393615;32;35281;-65
2022/08/12 14:20:12;;;;;;;;;;;;;;;31.80;22.22;100290.25;5398373;32;37050;-65
2022/08/12 14:23:17;;;;;;;;;;;;;;;32.46;21.32;100287.00;5399534;32;34222;-73
2022/08/12 14:26:40;;;;;;;;;;;;;;;31.33;22.73;100299.13;5404717;32;35114;-67
2022/08/12 14:29:45;;;;;;;;;;;;;;;30.73;23.90;100295.84;5398217;32;35442;-73
2022/08/12 14:33:07;;;;;;;;;;;;;;;30.97;23.71;100287.28;5402781;32;45029;-73
2022/08/12 14:36:12;;;;;;;;;;;;;;;32.05;22.33;100280.56;5402649;32;34888;-66
2022/08/12 14:39:16;;;;;;;;;;;;;;;32.19;22.00;100280.63;5383538;32;34226;-66
2022/08/12 14:42:18;;;;;;;;;;;;;;;32.16;21.97;100271.00;5412784;32;34610;-75
2022/08/12 14:45:21;;;;;;;;;;;;;;;32.22;22.10;100267.47;5394663;32;34701;-74
2022/08/12 14:48:24;;;;;;;;;;;;;;;30.95;23.97;100275.81;5418829;32;34215;-65
2022/08/12 14:51:29;;;;;;;;;;;;;;;31.35;23.54;100269.88;5391901;32;46171;-66
2022/08/12 14:54:50;;;;;;;;;;;;;;;31.69;22.58;100260.94;5396048;32;35206;-65
2022/08/12 14:58:12;;;;;;;;;;;;;;;31.26;23.59;100251.03;5404604;32;35411;-65
2022/08/12 15:04:35;;;;;;;;;;;;;;;32.00;22.86;100246.87;5417281;32;44850;-72
2022/08/12 15:07:37;;;;;;;;;;;;;;;32.05;22.63;100250.66;5399714;32;35184;-71
2022/08/12 15:10:54;;;;;;;;;;;;;;;31.17;23.81;100240.47;5391412;32;34201;-65
2022/08/12 15:13:58;;;;;;;;;;;;;;;30.92;23.78;100238.22;5420826;32;34169;-65
2022/08/12 15:17:01;;;;;;;;;;;;;;;31.57;22.79;100228.06;5378613;32;44918;-72
2022/08/12 15:20:03;;;;;;;;;;;;;;;30.78;24.05;100224.72;5410789;32;34999;-72
2022/08/12 15:23:26;;;;;;;;;;;;;;;31.09;23.45;100238.75;5400365;32;34545;-65
2022/08/12 15:26:37;;;;;;;;;;;;;;;30.54;24.28;100228.66;5379949;32;47903;-73
2022/08/12 15:29:41;;;;;;;;;;;;;;;30.92;23.94;100230.06;5416355;32;34516;-72
2022/08/12 15:32:45;;;;;;;;;;;;;;;31.51;23.11;100218.00;5405506;32;34796;-73
2022/08/12 15:35:49;;;;;;;;;;;;;;;31.08;23.74;100215.38;5408920;32;34256;-75
2022/08/12 15:38:54;;;;;;;;;;;;;;;30.64;24.47;100227.28;5399681;32;33532;-72
2022/08/12 15:41:56;;;;;;;;;;;;;;;31.69;23.14;100222.91;5404989;32;35061;-65
2022/08/12 15:45:03;;;;;;;;;;;;;;;31.93;22.73;100210.69;5396435;32;45103;-65
2022/08/12 15:48:10;;;;;;;;;;;;;;;31.74;23.03;100215.78;5397866;32;34430;-65
2022/08/12 15:51:30;;;;;;;;;;;;;;;30.84;25.36;100216.63;5407874;32;35252;-67
2022/08/12 15:54:52;;;;;;;;;;;;;;;30.62;26.20;100217.66;5393252;32;34963;-74
2022/08/12 15:58:00;;;;;;;;;;;;;;;30.13;27.13;100213.81;5396149;32;45928;-72
2022/08/12 16:01:05;;;;;;;;;;;;;;;30.03;27.04;100209.72;5380900;32;34908;-66
2022/08/12 16:04:10;;;;;;;;;;;;;;;29.98;27.40;100206.72;5384071;32;35375;-74
2022/08/12 16:07:16;;;;;;;;;;;;;;;29.91;27.45;100207.50;5404866;32;35320;-67
2022/08/12 16:10:19;;;;;;;;;;;;;;;29.54;27.90;100221.16;5367582;32;34878;-68
2022/08/12 16:13:31;;;;;;;;;;;;;;;29.45;28.12;100223.09;5418198;32;44680;-67
2022/08/12 16:16:35;;;;;;;;;;;;;;;29.13;28.57;100225.12;5371150;32;35144;-74
2022/08/12 16:19:41;;;;;;;;;;;;;;;29.58;27.88;100228.72;5379050;32;35438;-68
2022/08/12 16:23:10;;;;;;;;;;;;;;;30.12;27.15;100214.00;5414353;32;44875;-72
2022/08/12 16:26:34;;;;;;;;;;;;;;;29.32;28.09;100225.59;5388967;32;44130;-67
2022/08/12 16:29:38;;;;;;;;;;;;;;;29.55;27.61;100220.97;5413225;32;34537;-67
2022/08/12 16:32:55;;;;;;;;;;;;;;;29.44;27.77;100218.72;5397183;32;35181;-72
2022/08/12 16:35:58;;;;;;;;;;;;;;;29.43;27.95;100208.88;5390041;32;37262;-73
2022/08/12 16:39:01;;;;;;;;;;;;;;;28.91;29.02;100204.31;5403204;32;34712;-74
2022/08/12 16:42:03;;;;;;;;;;;;;;;29.35;28.41;100192.75;5376814;32;35202;-75
2022/08/12 16:45:07;;;;;;;;;;;;;;;29.92;27.49;100197.47;5399973;32;34859;-73
2022/08/12 16:48:08;;;;;;;;;;;;;;;29.64;27.90;100195.47;5383920;32;35033;-72
2022/08/12 16:51:30;;;;;;;;;;;;;;;29.68;27.64;100182.38;5389442;32;45165;-72
2022/08/12 16:54:42;;;;;;;;;;;;;;;28.77;28.62;100205.12;5412608;32;35419;-74
2022/08/12 16:57:47;;;;;;;;;;;;;;;29.03;28.25;100199.34;5395716;32;34193;-72
2022/08/12 17:00:50;;;;;;;;;;;;;;;29.13;27.73;100191.81;5408099;32;35275;-69
2022/08/12 17:04:06;;;;;;;;;;;;;;;28.60;28.44;100185.50;5400327;32;37037;-67
2022/08/12 17:07:14;;;;;;;;;;;;;;;28.76;28.19;100181.81;5406422;32;35155;-74
2022/08/12 17:10:17;;;;;;;;;;;;;;;28.86;28.17;100185.94;5381522;32;33795;-74
2022/08/12 17:13:37;;;;;;;;;;;;;;;29.44;27.17;100174.56;5400637;32;44495;-69
2022/08/12 17:16:54;;;;;;;;;;;;;;;29.51;26.96;100180.91;5392848;32;34050;-73
2022/08/12 17:20:03;;;;;;;;;;;;;;;29.35;27.26;100195.44;5379129;32;37200;-67
2022/08/12 17:23:25;;;;;;;;;;;;;;;29.59;26.91;100176.25;5376307;32;34938;-68
2022/08/12 17:26:34;;;;;;;;;;;;;;;29.71;26.74;100179.31;5393216;32;44535;-74
2022/08/12 17:29:38;;;;;;;;;;;;;;;28.92;27.79;100192.53;5383824;32;34845;-73
2022/08/12 17:33:02;;;;;;;;;;;;;;;29.63;26.73;100193.81;5416939;32;45264;-67
2022/08/12 17:36:08;;;;;;;;;;;;;;;29.46;26.99;100203.09;5405294;32;34690;-73
2022/08/12 17:39:11;;;;;;;;;;;;;;;28.69;28.11;100197.09;5398976;32;35102;-72
2022/08/12 17:42:14;;;;;;;;;;;;;;;29.19;27.50;100201.88;5404389;32;34810;-67
2022/08/12 17:45:37;;;;;;;;;;;;;;;28.84;27.88;100192.53;5398812;32;44945;-76
2022/08/12 17:48:42;;;;;;;;;;;;;;;28.96;27.82;100191.12;5415738;32;35589;-74
2022/08/12 17:51:56;;;;;;;;;;;;;;;29.26;27.32;100199.28;5387984;32;34606;-74
2022/08/12 17:55:07;;;;;;;;;;;;;;;29.05;27.81;100200.84;5378457;32;44819;-68
2022/08/12 17:58:30;;;;;;;;;;;;;;;28.85;28.01;100189.69;5415364;32;45838;-67
2022/08/12 18:01:42;;;;;;;;;;;;;;;29.08;27.59;100184.22;5375045;32;35290;-72
2022/08/12 18:04:44;;;;;;;;;;;;;;;29.03;27.82;100202.03;5414136;32;35137;-67